Time;durP1;ratioP1;P1;durP2;ratioP2;P2;SDS_P1;SDS_P2;PMS_P1;PMS_P2;Temp;Humidity;BMP_temperature;BMP_pressure;BME280_temperature;BME280_humidity;BME280_pressure;Samples;Min_cycle;Max_cycle;Signal;HPM_P1;HPM_P2
2022/07/27 00:00:53;;;;;;;0.13;0.13;;;16.80;99.90;;;;;;4999919;28;20053;-86
2022/07/27 00:03:19;;;;;;;0.32;0.32;;;16.80;99.90;;;;;;5017218;28;20048;-84
2022/07/27 00:05:45;;;;;;;0.10;0.10;;;16.80;99.90;;;;;;5016653;28;20026;-80
2022/07/27 00:08:11;;;;;;;0.20;0.20;;;16.80;99.90;;;;;;5016707;28;20117;-82
2022/07/27 00:10:37;;;;;;;0.10;0.10;;;16.80;99.90;;;;;;4999359;28;20041;-90
2022/07/27 00:13:04;;;;;;;0.40;0.40;;;16.70;99.90;;;;;;4999488;28;20028;-79
2022/07/27 00:15:29;;;;;;;0.15;0.13;;;16.70;99.90;;;;;;5016711;28;20049;-79
2022/07/27 00:17:59;;;;;;;0.10;0.10;;;16.70;99.90;;;;;;4999265;28;20022;-81
2022/07/27 00:20:26;;;;;;;;;;;16.70;99.90;;;;;;4999673;28;20025;-91
2022/07/27 00:22:51;;;;;;;1.27;0.30;;;16.80;99.90;;;;;;5015852;28;19909;-81
2022/07/27 00:25:17;;;;;;;0.35;0.35;;;16.70;99.90;;;;;;5016253;28;20075;-83
2022/07/27 00:27:43;;;;;;;1.35;0.68;;;16.70;99.90;;;;;;4998547;28;20056;-81
2022/07/27 00:30:09;;;;;;;1.65;0.57;;;16.70;99.90;;;;;;4998796;28;20483;-83
2022/07/27 00:32:34;;;;;;;0.30;0.30;;;16.60;99.90;;;;;;4999145;28;20022;-81
2022/07/27 00:35:00;;;;;;;4.60;0.45;;;16.50;99.90;;;;;;5003006;28;20490;-80
2022/07/27 00:37:26;;;;;;;0.20;0.20;;;16.50;99.90;;;;;;5002203;28;20386;-87
2022/07/27 00:39:53;;;;;;;0.20;0.20;;;16.50;99.90;;;;;;5000254;28;20030;-86
2022/07/27 00:42:25;;;;;;;0.32;0.32;;;16.50;99.90;;;;;;5016591;28;20601;-82
2022/07/27 00:44:51;;;;;;;0.60;0.60;;;16.50;99.90;;;;;;5016070;28;20108;-80
2022/07/27 00:47:16;;;;;;;0.20;0.20;;;16.50;99.90;;;;;;4998443;28;20120;-91
2022/07/27 00:49:42;;;;;;;0.30;0.30;;;16.70;99.90;;;;;;4998692;28;20038;-86
2022/07/27 00:52:08;;;;;;;0.10;0.10;;;16.70;99.90;;;;;;4998526;28;20116;-87
2022/07/27 00:54:34;;;;;;;0.60;0.60;;;16.80;99.90;;;;;;4998090;28;20071;-84
2022/07/27 00:57:00;;;;;;;0.28;0.28;;;16.90;99.90;;;;;;4998278;28;20392;-82
2022/07/27 00:59:26;;;;;;;0.47;0.47;;;17.00;99.90;;;;;;4998638;28;20076;-82
2022/07/27 01:01:52;;;;;;;0.20;0.20;;;;;;;;;;4998232;28;20033;-82
2022/07/27 01:04:18;;;;;;;0.13;0.13;;;17.30;99.90;;;;;;5015922;28;20109;-83
2022/07/27 01:06:44;;;;;;;0.10;0.10;;;17.50;99.90;;;;;;4998306;28;20117;-86
2022/07/27 01:11:53;;;;;;;0.30;0.30;;;17.60;99.90;;;;;;5016427;28;20044;-83
2022/07/27 01:14:19;;;;;;;0.20;0.20;;;17.60;99.90;;;;;;4997879;28;20042;-81
2022/07/27 01:16:45;;;;;;;0.35;0.30;;;17.60;99.90;;;;;;5015708;28;20033;-83
2022/07/27 01:19:13;;;;;;;0.10;0.10;;;17.50;99.90;;;;;;5015736;28;20032;-83
2022/07/27 01:21:39;;;;;;;0.70;0.55;;;17.50;99.90;;;;;;4997971;28;20018;-82
2022/07/27 01:24:06;;;;;;;0.30;0.30;;;17.30;99.90;;;;;;4998178;28;20026;-82
2022/07/27 01:26:33;;;;;;;0.10;0.10;;;17.20;99.90;;;;;;4997837;28;20052;-83
2022/07/27 01:29:00;;;;;;;13.25;0.70;;;17.10;99.90;;;;;;4997837;28;20041;-82
2022/07/27 01:31:27;;;;;;;5.43;1.20;;;17.10;99.90;;;;;;4997745;28;20038;-83
2022/07/27 01:33:53;;;;;;;0.20;0.20;;;17.00;99.90;;;;;;4997799;28;20076;-83
2022/07/27 01:36:19;;;;;;;0.00;0.00;;;16.90;99.90;;;;;;4997870;28;20029;-83
2022/07/27 01:38:44;;;;;;;0.20;0.20;;;16.70;99.90;;;;;;4997942;28;20363;-83
2022/07/27 01:41:12;;;;;;;0.30;0.30;;;16.60;99.90;;;;;;5006804;28;20018;-82
2022/07/27 01:43:38;;;;;;;0.35;0.35;;;16.50;99.90;;;;;;5028878;28;20025;-82
2022/07/27 01:46:03;;;;;;;0.20;0.20;;;16.40;99.90;;;;;;5012384;28;20026;-81
2022/07/27 01:48:29;;;;;;;1.15;0.40;;;16.30;99.90;;;;;;5029710;28;20521;-82
2022/07/27 01:50:56;;;;;;;0.30;0.30;;;16.20;99.90;;;;;;5016173;28;20157;-83
2022/07/27 01:53:23;;;;;;;0.30;0.30;;;16.20;99.90;;;;;;4997654;28;20033;-83
2022/07/27 01:55:50;;;;;;;0.35;0.35;;;16.20;99.90;;;;;;5014897;28;20504;-85
2022/07/27 01:58:16;;;;;;;0.30;0.30;;;16.10;99.90;;;;;;4997645;28;20044;-83
2022/07/27 02:00:42;;;;;;;0.38;0.30;;;16.00;99.90;;;;;;5014937;28;20459;-84
2022/07/27 02:03:09;;;;;;;0.15;0.15;;;16.00;99.90;;;;;;4997385;28;20038;-83
2022/07/27 02:05:35;;;;;;;0.28;0.25;;;16.00;99.90;;;;;;4997097;28;20022;-82
2022/07/27 02:08:01;;;;;;;0.30;0.30;;;16.00;99.90;;;;;;4998345;28;20474;-82
2022/07/27 02:10:27;;;;;;;1.48;0.65;;;15.90;99.90;;;;;;5005501;28;20049;-81
2022/07/27 02:12:53;;;;;;;0.20;0.20;;;16.00;99.90;;;;;;4998146;28;20033;-83
2022/07/27 02:15:21;;;;;;;0.55;0.55;;;16.10;99.90;;;;;;5014658;28;20045;-82
2022/07/27 02:17:48;;;;;;;0.90;0.30;;;16.10;99.90;;;;;;4997177;28;20089;-82
2022/07/27 02:20:15;;;;;;;0.30;0.20;;;16.20;99.90;;;;;;4996722;28;20041;-83
2022/07/27 02:22:42;;;;;;;2.25;0.60;;;16.30;99.90;;;;;;5014420;28;20022;-83
2022/07/27 02:25:09;;;;;;;2.17;0.40;;;16.30;99.90;;;;;;4997014;28;20037;-82
2022/07/27 02:27:35;;;;;;;0.40;0.40;;;16.40;99.90;;;;;;4996962;28;20466;-82
2022/07/27 02:30:01;;;;;;;0.28;0.28;;;;;;;;;;4996525;28;20113;-82
2022/07/27 02:32:27;;;;;;;0.35;0.32;;;16.40;99.90;;;;;;4996859;28;20073;-82
2022/07/27 02:34:52;;;;;;;2.83;0.77;;;16.50;99.90;;;;;;4996502;28;20541;-83
2022/07/27 02:37:18;;;;;;;0.57;0.57;;;16.50;99.90;;;;;;4996350;28;20021;-83
2022/07/27 02:39:44;;;;;;;0.10;0.10;;;16.50;99.90;;;;;;4996929;28;20486;-83
2022/07/27 02:42:09;;;;;;;2.53;1.67;;;16.50;99.90;;;;;;5013842;28;20390;-83
2022/07/27 02:44:35;;;;;;;0.40;0.40;;;16.50;99.90;;;;;;5014084;28;20049;-83
2022/07/27 02:47:01;;;;;;;0.47;0.47;;;16.50;99.90;;;;;;5013924;28;20025;-83
2022/07/27 02:49:27;;;;;;;1.35;0.90;;;16.60;99.90;;;;;;5013992;28;20044;-83
2022/07/27 02:51:53;;;;;;;0.20;0.20;;;16.60;99.90;;;;;;5014165;28;20018;-83
2022/07/27 02:54:23;;;;;;;0.22;0.22;;;16.70;99.90;;;;;;5014410;28;20474;-83
2022/07/27 02:56:51;;;;;;;0.55;0.30;;;16.80;99.90;;;;;;5013998;28;20482;-82
2022/07/27 02:59:17;;;;;;;0.52;0.40;;;16.90;99.90;;;;;;4996286;28;20021;-83
2022/07/27 03:01:44;;;;;;;0.85;0.30;;;17.00;99.90;;;;;;4996228;28;20034;-83
2022/07/27 03:04:09;;;;;;;0.43;0.30;;;17.00;99.90;;;;;;5013636;28;20095;-83
2022/07/27 03:06:35;;;;;;;0.20;0.20;;;17.10;99.90;;;;;;4996355;28;20109;-83
2022/07/27 03:09:02;;;;;;;3.08;0.15;;;17.20;99.90;;;;;;5013849;28;20022;-82
2022/07/27 03:11:28;;;;;;;4.05;0.50;;;17.30;99.90;;;;;;4996435;28;20501;-82
2022/07/27 03:13:54;;;;;;;0.30;0.30;;;17.30;99.90;;;;;;5013565;28;20046;-82
2022/07/27 03:16:20;;;;;;;2.08;0.52;;;17.40;99.90;;;;;;4996341;28;20029;-82
2022/07/27 03:18:45;;;;;;;0.45;0.45;;;17.30;99.90;;;;;;4996165;28;20026;-82
2022/07/27 03:21:12;;;;;;;1.65;0.93;;;;;;;;;;5013719;28;20536;-83
2022/07/27 03:23:38;;;;;;;0.20;0.20;;;16.90;99.90;;;;;;4996179;28;20026;-84
2022/07/27 03:26:04;;;;;;;1.02;0.57;;;17.20;99.90;;;;;;5013774;28;20028;-83
2022/07/27 03:28:30;;;;;;;0.20;0.20;;;17.10;99.90;;;;;;4996040;28;20493;-83
2022/07/27 03:30:56;;;;;;;0.70;0.70;;;;;;;;;;4996175;28;20105;-82
2022/07/27 03:33:22;;;;;;;0.70;0.60;;;17.10;99.90;;;;;;5017400;28;20026;-82
2022/07/27 03:35:48;;;;;;;0.30;0.30;;;17.20;99.90;;;;;;5017906;28;20037;-83
2022/07/27 03:38:13;;;;;;;4.60;0.70;;;17.20;99.90;;;;;;4999969;28;20439;-84
2022/07/27 03:40:39;;;;;;;0.85;0.63;;;17.20;99.90;;;;;;5017517;28;20101;-83
2022/07/27 03:43:05;;;;;;;0.30;0.30;;;17.20;99.90;;;;;;5000108;28;20121;-82
2022/07/27 03:45:31;;;;;;;0.20;0.10;;;17.20;99.90;;;;;;5000071;28;20494;-83
2022/07/27 03:47:57;;;;;;;0.15;0.15;;;17.20;99.90;;;;;;4999792;28;20478;-83
2022/07/27 03:50:22;;;;;;;2.08;0.73;;;17.20;99.90;;;;;;5017366;28;20506;-83
2022/07/27 03:52:48;;;;;;;0.45;0.45;;;17.30;99.90;;;;;;4999642;28;20096;-83
2022/07/27 03:55:14;;;;;;;0.30;0.30;;;17.10;99.90;;;;;;4999688;28;20079;-83
2022/07/27 03:57:40;;;;;;;1.33;1.05;;;17.10;99.90;;;;;;4999804;28;20113;-83
2022/07/27 04:00:10;;;;;;;0.17;0.17;;;17.10;99.90;;;;;;4999858;28;20022;-82
2022/07/27 04:02:35;;;;;;;;;;;17.00;99.90;;;;;;5017506;28;20025;-83
2022/07/27 04:05:01;;;;;;;0.38;0.38;;;16.90;99.90;;;;;;5017279;28;20294;-83
2022/07/27 04:07:26;;;;;;;0.22;0.22;;;16.90;99.90;;;;;;4999638;28;20030;-83
2022/07/27 04:09:52;;;;;;;0.50;0.50;;;16.80;99.90;;;;;;4999481;28;20132;-82
2022/07/27 04:12:18;;;;;;;0.10;0.10;;;16.80;99.90;;;;;;4999268;28;20139;-83
2022/07/27 04:14:43;;;;;;;1.45;0.52;;;16.80;99.90;;;;;;5016555;28;20096;-83
2022/07/27 04:17:09;;;;;;;4.03;0.60;;;;;;;;;;4999234;28;20084;-82
2022/07/27 04:19:35;;;;;;;0.17;0.17;;;16.70;99.90;;;;;;4999310;28;20382;-83
2022/07/27 04:22:00;;;;;;;0.73;0.28;;;16.70;99.90;;;;;;4999522;28;20080;-84
2022/07/27 04:24:26;;;;;;;0.35;0.30;;;16.60;99.90;;;;;;4999472;28;20072;-82
2022/07/27 04:26:52;;;;;;;0.20;0.20;;;16.70;99.90;;;;;;4999304;28;20026;-84
2022/07/27 04:29:17;;;;;;;0.30;0.20;;;16.70;99.90;;;;;;4999073;28;20026;-82
2022/07/27 04:31:43;;;;;;;0.25;0.25;;;16.90;99.90;;;;;;5016733;28;20026;-83
2022/07/27 04:34:09;;;;;;;3.03;0.63;;;16.90;99.90;;;;;;4998951;28;20029;-83
2022/07/27 04:36:38;;;;;;;0.25;0.25;;;17.00;99.90;;;;;;4999021;28;20033;-82
2022/07/27 04:39:03;;;;;;;0.30;0.30;;;17.10;99.90;;;;;;4999127;28;20026;-81
2022/07/27 04:41:29;;;;;;;0.25;0.25;;;17.10;99.90;;;;;;4998983;28;20284;-82
2022/07/27 04:43:56;;;;;;;1.48;0.93;;;17.30;99.90;;;;;;4997633;28;20120;-83
2022/07/27 04:46:21;;;;;;;0.55;0.20;;;17.30;99.90;;;;;;4999146;28;20112;-82
2022/07/27 04:48:47;;;;;;;0.20;0.20;;;17.40;99.90;;;;;;4998855;28;20112;-84
2022/07/27 04:51:14;;;;;;;0.20;0.20;;;17.40;99.90;;;;;;4998806;28;20067;-83
2022/07/27 04:53:40;;;;;;;0.20;0.20;;;17.50;99.90;;;;;;4998813;28;20143;-83
2022/07/27 04:56:07;;;;;;;1.02;0.90;;;17.50;99.90;;;;;;5016167;28;20462;-84
2022/07/27 04:58:33;;;;;;;0.68;0.68;;;17.50;99.90;;;;;;5016273;28;20509;-83
2022/07/27 05:00:59;;;;;;;0.10;0.10;;;17.60;99.90;;;;;;4998712;28;20026;-83
2022/07/27 05:03:24;;;;;;;0.43;0.43;;;17.60;99.90;;;;;;4998761;28;20022;-83
2022/07/27 05:05:51;;;;;;;0.88;0.20;;;17.70;99.90;;;;;;4998534;28;20414;-82
2022/07/27 05:08:17;;;;;;;1.08;1.00;;;17.80;99.90;;;;;;4998214;28;20109;-83
2022/07/27 05:10:43;;;;;;;4.20;0.60;;;17.80;99.90;;;;;;4999539;28;20124;-81
2022/07/27 05:13:10;;;;;;;0.28;0.20;;;18.00;99.90;;;;;;5018557;28;20061;-81
2022/07/27 05:15:36;;;;;;;0.15;0.15;;;18.00;99.90;;;;;;5001941;28;20064;-81
2022/07/27 05:18:02;;;;;;;0.10;0.10;;;18.00;99.90;;;;;;5001219;28;20121;-82
2022/07/27 05:20:28;;;;;;;0.43;0.43;;;18.10;99.90;;;;;;4999701;28;20033;-82
2022/07/27 05:22:54;;;;;;;0.20;0.20;;;18.10;99.90;;;;;;4998268;28;20053;-81
2022/07/27 05:25:28;;;;;;;0.17;0.17;;;18.20;99.90;;;;;;4999521;28;20057;-82
2022/07/27 05:27:54;;;;;;;0.70;0.20;;;18.30;99.90;;;;;;4999923;28;20034;-82
2022/07/27 05:30:22;;;;;;;0.10;0.10;;;18.40;99.90;;;;;;4998651;28;20062;-82
2022/07/27 05:32:48;;;;;;;0.45;0.45;;;18.40;99.90;;;;;;5018787;28;20017;-82
2022/07/27 05:35:15;;;;;;;0.47;0.47;;;18.50;99.90;;;;;;4999555;28;20036;-81
2022/07/27 05:37:41;;;;;;;0.30;0.30;;;18.60;99.90;;;;;;5000332;28;20513;-82
2022/07/27 05:40:07;;;;;;;1.08;0.30;;;18.50;99.90;;;;;;5015759;28;20026;-82
2022/07/27 05:42:33;;;;;;;31.85;2.85;;;18.80;99.90;;;;;;5015417;28;20022;-82
2022/07/27 05:44:59;;;;;;;1.25;0.40;;;18.80;99.90;;;;;;4998074;28;20049;-83
2022/07/27 05:47:25;;;;;;;4.63;1.85;;;18.90;99.90;;;;;;5014870;28;20030;-82
2022/07/27 05:49:51;;;;;;;0.38;0.38;;;19.00;99.90;;;;;;5015250;28;20062;-82
2022/07/27 05:52:19;;;;;;;0.38;0.32;;;19.10;99.90;;;;;;4997717;28;20037;-83
2022/07/27 05:54:45;;;;;;;0.20;0.20;;;19.00;99.90;;;;;;5014865;28;20071;-83
2022/07/27 05:57:11;;;;;;;0.20;0.20;;;19.00;99.90;;;;;;4997660;28;20037;-84
2022/07/27 05:59:37;;;;;;;1.95;0.40;;;18.90;99.90;;;;;;4997887;28;20549;-82
2022/07/27 06:02:03;;;;;;;4.03;0.40;;;18.70;99.90;;;;;;5024199;28;20025;-82
2022/07/27 06:04:29;;;;;;;0.50;0.30;;;18.70;99.90;;;;;;5027114;28;20029;-81
2022/07/27 06:09:39;;;;;;;0.30;0.30;;;18.50;99.90;;;;;;5027626;28;20440;-82
2022/07/27 06:12:05;;;;;;;0.35;0.30;;;18.50;99.90;;;;;;5015423;28;20022;-82
2022/07/27 06:14:31;;;;;;;0.35;0.35;;;18.40;99.90;;;;;;4997267;28;20139;-83
2022/07/27 06:16:57;;;;;;;0.98;0.90;;;18.40;99.90;;;;;;4997108;28;20022;-82
2022/07/27 06:19:23;;;;;;;0.73;0.68;;;18.40;99.90;;;;;;5017266;28;20022;-82
2022/07/27 06:21:50;;;;;;;0.20;0.20;;;;;;;;;;4999237;28;20030;-81
2022/07/27 06:24:16;;;;;;;0.57;0.55;;;18.40;99.90;;;;;;5016060;28;20069;-81
2022/07/27 06:26:48;;;;;;;0.73;0.43;;;18.60;99.90;;;;;;5018495;28;20034;-81
2022/07/27 06:29:14;;;;;;;0.30;0.30;;;18.60;99.90;;;;;;5002199;28;20113;-81
2022/07/27 06:31:39;;;;;;;1.02;0.85;;;18.60;99.90;;;;;;5001091;28;20072;-81
2022/07/27 06:34:05;;;;;;;0.60;0.60;;;18.70;99.90;;;;;;5001435;28;20022;-81
2022/07/27 06:36:32;;;;;;;2.08;0.30;;;18.80;99.90;;;;;;5018046;28;20084;-81
2022/07/27 06:38:58;;;;;;;0.40;0.40;;;18.80;99.90;;;;;;5018727;28;20034;-82
2022/07/27 06:41:24;;;;;;;0.40;0.40;;;18.80;99.90;;;;;;5016100;28;20030;-82
2022/07/27 06:43:50;;;;;;;0.52;0.52;;;18.80;99.90;;;;;;4999142;28;20022;-81
2022/07/27 06:46:16;;;;;;;0.40;0.40;;;18.80;99.90;;;;;;5000057;28;20033;-81
2022/07/27 06:48:42;;;;;;;0.20;0.20;;;18.70;99.90;;;;;;4999947;28;20022;-82
2022/07/27 06:51:08;;;;;;;4.75;0.65;;;18.80;99.90;;;;;;5000200;28;20033;-81
2022/07/27 06:53:33;;;;;;;0.45;0.45;;;19.00;99.90;;;;;;5002925;28;20414;-82
2022/07/27 06:56:02;;;;;;;0.28;0.28;;;19.10;99.90;;;;;;5016414;28;20036;-78
2022/07/27 06:58:32;;;;;;;0.30;0.30;;;19.00;99.90;;;;;;4999626;28;20033;-78
2022/07/27 07:01:00;;;;;;;0.75;0.75;;;19.40;99.90;;;;;;5019384;28;20049;-77
2022/07/27 07:03:27;;;;;;;1.00;0.43;;;19.70;99.90;;;;;;5006777;28;20026;-78
2022/07/27 07:05:52;;;;;;;0.80;0.10;;;20.20;99.90;;;;;;5018228;28;20026;-79
2022/07/27 07:08:18;;;;;;;0.68;0.43;;;21.50;99.90;;;;;;4997012;28;20490;-78
2022/07/27 07:10:44;;;;;;;0.52;0.38;;;22.30;99.90;;;;;;4996351;28;20085;-83
2022/07/27 07:13:11;;;;;;;0.20;0.20;;;23.00;95.80;;;;;;5013432;28;20034;-84
2022/07/27 07:15:39;;;;;;;0.10;0.10;;;23.10;90.40;;;;;;4995654;28;20055;-80
2022/07/27 07:18:09;;;;;;;0.20;0.20;;;23.90;84.80;;;;;;5013961;28;20064;-89
2022/07/27 07:20:36;;;;;;;0.40;0.40;;;23.90;82.70;;;;;;5014396;28;20037;-88
2022/07/27 07:23:03;;;;;;;0.40;0.32;;;24.40;79.40;;;;;;5013982;28;20028;-82
2022/07/27 07:25:29;;;;;;;0.60;0.60;;;24.60;80.40;;;;;;5013058;28;20022;-79
2022/07/27 07:27:55;;;;;;;0.40;0.40;;;24.60;77.90;;;;;;4996515;28;20033;-88
2022/07/27 07:30:21;;;;;;;0.40;0.40;;;23.60;76.00;;;;;;5013516;28;20036;-86
2022/07/27 07:32:48;;;;;;;0.13;0.13;;;23.50;77.20;;;;;;4995976;28;20030;-80
2022/07/27 07:35:14;;;;;;;0.22;0.22;;;23.80;78.60;;;;;;4995801;28;20026;-85
2022/07/27 07:37:40;;;;;;;0.25;0.22;;;24.60;78.60;;;;;;4996425;28;20048;-88
2022/07/27 07:40:07;;;;;;;0.63;0.40;;;25.30;71.70;;;;;;4996859;28;20025;-90
2022/07/27 07:42:53;;;;;;;0.10;0.10;;;25.10;72.00;;;;;;4996523;28;20041;-87
2022/07/27 07:45:20;;;;;;;0.38;0.38;;;25.30;72.00;;;;;;5013850;28;20052;-84
2022/07/27 07:47:46;;;;;;;1.08;0.45;;;25.10;69.30;;;;;;4996151;28;20363;-86
2022/07/27 07:50:13;;;;;;;0.10;0.10;;;25.10;70.30;;;;;;4996057;28;20467;-88
2022/07/27 07:52:38;;;;;;;0.55;0.25;;;25.30;68.40;;;;;;4995783;28;20062;-90
2022/07/27 07:55:05;;;;;;;0.20;0.20;;;24.90;69.10;;;;;;5013847;28;20069;-90
2022/07/27 07:57:30;;;;;;;0.15;0.15;;;25.20;69.70;;;;;;5013413;28;20053;-80
2022/07/27 07:59:56;;;;;;;0.30;0.30;;;25.80;65.20;;;;;;5014437;28;20057;-88
2022/07/27 08:02:21;;;;;;;0.43;0.43;;;25.80;65.50;;;;;;5003095;28;20053;-88
2022/07/27 08:04:47;;;;;;;0.52;0.52;;;26.20;65.80;;;;;;4996590;28;20056;-90
2022/07/27 08:07:14;;;;;;;0.32;0.30;;;25.60;65.20;;;;;;4999768;28;20046;-89
2022/07/27 08:09:40;;;;;;;0.45;0.40;;;25.10;66.30;;;;;;5013477;28;20029;-89
2022/07/27 08:12:05;;;;;;;1.95;0.43;;;24.00;66.90;;;;;;5013470;28;20029;-89
2022/07/27 08:14:32;;;;;;;0.20;0.20;;;23.80;67.70;;;;;;4996054;28;20088;-88
2022/07/27 08:16:58;;;;;;;0.57;0.57;;;23.90;70.30;;;;;;5015424;28;20377;-85
2022/07/27 08:19:24;;;;;;;0.65;0.65;;;24.00;71.20;;;;;;5005611;28;20033;-86
2022/07/27 08:21:49;;;;;;;0.55;0.55;;;23.60;72.20;;;;;;5009378;28;20336;-85
2022/07/27 08:24:15;;;;;;;0.63;0.60;;;23.30;73.70;;;;;;5025129;28;20049;-87
2022/07/27 08:26:41;;;;;;;0.57;0.57;;;23.70;74.50;;;;;;5007543;28;20450;-88
2022/07/27 08:29:07;;;;;;;0.35;0.35;;;24.00;73.80;;;;;;5009591;28;20014;-88
2022/07/27 08:31:32;;;;;;;0.75;0.50;;;23.80;70.80;;;;;;5009563;28;20026;-89
2022/07/27 08:33:58;;;;;;;0.30;0.30;;;23.80;71.80;;;;;;5009718;28;20020;-89
2022/07/27 08:36:24;;;;;;;0.40;0.40;;;23.60;74.10;;;;;;5006372;28;20049;-88
2022/07/27 08:38:49;;;;;;;2.90;0.93;;;23.50;74.20;;;;;;5002593;28;20018;-89
2022/07/27 08:41:17;;;;;;;0.52;0.40;;;23.70;73.20;;;;;;4999671;28;20037;-88
2022/07/27 08:43:46;;;;;;;0.30;0.30;;;23.80;72.50;;;;;;5016597;28;20509;-85
2022/07/27 08:46:13;;;;;;;0.47;0.47;;;24.20;75.10;;;;;;4999148;28;20021;-88
2022/07/27 08:48:39;;;;;;;0.45;0.45;;;24.60;72.80;;;;;;4999054;28;20026;-88
2022/07/27 08:51:08;;;;;;;0.10;0.10;;;25.30;69.50;;;;;;5016555;28;20033;-87
2022/07/27 08:53:34;;;;;;;0.40;0.40;;;25.20;70.00;;;;;;4999200;28;20095;-89
2022/07/27 08:56:00;;;;;;;5.63;0.35;;;25.10;69.30;;;;;;5017719;28;20034;-86
2022/07/27 08:58:26;;;;;;;0.28;0.28;;;25.70;69.00;;;;;;5023215;28;20298;-87
2022/07/27 09:00:52;;;;;;;0.55;0.55;;;25.80;66.60;;;;;;5018218;28;20030;-89
2022/07/27 09:03:20;;;;;;;0.13;0.13;;;25.90;66.00;;;;;;5016453;28;20033;-87
2022/07/27 09:05:51;;;;;;;0.68;0.38;;;26.40;68.00;;;;;;5016266;28;20029;-88
2022/07/27 09:08:26;;;;;;;1.77;0.85;;;26.20;67.30;;;;;;4998957;28;20121;-89
2022/07/27 09:10:55;;;;;;;0.22;0.22;;;25.80;68.80;;;;;;4998484;28;20038;-86
2022/07/27 09:13:28;;;;;;;0.22;0.22;;;25.60;66.60;;;;;;5016363;28;20119;-89
2022/07/27 09:16:03;;;;;;;0.22;0.22;;;25.20;67.10;;;;;;5015924;28;20506;-87
2022/07/27 09:18:32;;;;;;;0.63;0.45;;;24.70;68.80;;;;;;4998775;28;20176;-88
2022/07/27 09:21:10;;;;;;;0.40;0.40;;;25.20;68.80;;;;;;4998693;28;20493;-89
2022/07/27 09:23:40;;;;;;;0.90;0.38;;;25.50;68.30;;;;;;4998503;28;20030;-89
2022/07/27 09:26:18;;;;;;;2.40;0.57;;;24.90;67.80;;;;;;4998552;28;20376;-91
2022/07/27 09:28:44;;;;;;;0.20;0.20;;;24.90;70.10;;;;;;4998879;28;20026;-92
2022/07/27 09:31:12;;;;;;;0.75;0.75;;;24.70;68.30;;;;;;4997648;28;20487;-92
2022/07/27 09:33:46;;;;;;;0.85;0.38;;;24.70;68.40;;;;;;4998575;28;20116;-90
2022/07/27 09:36:12;;;;;;;0.57;0.30;;;24.80;65.20;;;;;;5013725;28;20033;-91
2022/07/27 09:38:50;;;;;;;0.80;0.22;;;24.70;64.60;;;;;;4998453;28;20026;-90
2022/07/27 09:41:16;;;;;;;0.20;0.20;;;24.80;65.20;;;;;;5015644;28;20030;-89
2022/07/27 09:43:53;;;;;;;0.28;0.17;;;25.00;60.90;;;;;;4998095;28;20052;-90
2022/07/27 09:46:38;;;;;;;0.10;0.10;;;24.90;62.80;;;;;;4998297;28;20105;-91
2022/07/27 09:49:05;;;;;;;0.10;0.10;;;24.80;61.50;;;;;;4998076;28;20033;-89
2022/07/27 09:51:32;;;;;;;0.20;0.20;;;24.70;62.50;;;;;;4998211;28;20038;-89
2022/07/27 09:54:04;;;;;;;0.10;0.10;;;25.00;61.80;;;;;;4998196;28;20029;-90
2022/07/27 09:56:32;;;;;;;0.22;0.22;;;24.90;58.80;;;;;;5015338;28;20084;-88
2022/07/27 09:58:59;;;;;;;0.00;0.00;;;24.80;59.60;;;;;;5015340;28;20105;-88
2022/07/27 10:01:31;;;;;;;1.98;0.65;;;25.10;61.30;;;;;;4998023;28;20076;-91
2022/07/27 10:03:59;;;;;;;0.20;0.20;;;25.50;60.90;;;;;;4997893;28;20026;-91
2022/07/27 10:06:27;;;;;;;0.10;0.10;;;25.50;57.40;;;;;;4997981;28;20394;-90
2022/07/27 10:08:54;;;;;;;0.15;0.15;;;25.60;56.70;;;;;;5015453;28;20467;-89
2022/07/27 10:11:21;;;;;;;0.47;0.47;;;26.30;57.30;;;;;;4997762;28;20033;-85
2022/07/27 10:13:49;;;;;;;0.20;0.20;;;26.20;55.80;;;;;;4997472;28;20056;-87
2022/07/27 10:16:21;;;;;;;0.43;0.43;;;26.50;58.10;;;;;;5007367;28;20033;-87
2022/07/27 10:18:58;;;;;;;0.70;0.60;;;26.10;56.00;;;;;;5024640;28;20065;-86
2022/07/27 10:21:25;;;;;;;0.20;0.20;;;25.80;58.40;;;;;;4997571;28;20387;-88
2022/07/27 10:23:55;;;;;;;3.13;0.50;;;25.70;58.80;;;;;;4997736;28;20493;-86
2022/07/27 10:26:23;;;;;;;0.20;0.20;;;25.90;59.80;;;;;;5015512;28;20427;-84
2022/07/27 10:28:58;;;;;;;0.93;0.47;;;25.80;57.50;;;;;;4997112;28;20501;-83
2022/07/27 10:31:30;;;;;;;0.40;0.40;;;25.90;59.70;;;;;;4996946;28;20038;-82
2022/07/27 10:33:59;;;;;;;0.20;0.20;;;25.60;57.50;;;;;;5014202;28;20052;-83
2022/07/27 10:36:31;;;;;;;0.38;0.38;;;25.90;58.60;;;;;;5014261;28;20032;-84
2022/07/27 10:39:02;;;;;;;0.17;0.13;;;26.00;54.90;;;;;;4996840;28;20033;-83
2022/07/27 10:41:33;;;;;;;0.25;0.20;;;26.00;55.40;;;;;;4996473;28;20033;-84
2022/07/27 10:44:14;;;;;;;0.45;0.20;;;26.20;54.20;;;;;;4996637;28;20049;-83
2022/07/27 10:46:52;;;;;;;0.10;0.10;;;26.50;54.40;;;;;;5014341;28;20026;-84
2022/07/27 10:49:21;;;;;;;0.25;0.25;;;26.80;53.40;;;;;;4996274;28;20037;-83
2022/07/27 10:51:47;;;;;;;0.17;0.17;;;27.00;53.40;;;;;;4996423;28;20501;-82
2022/07/27 10:54:38;;;;;;;0.20;0.20;;;26.90;53.80;;;;;;4996374;28;20479;-81
2022/07/27 10:57:06;;;;;;;0.38;0.28;;;26.70;52.60;;;;;;4996223;28;20030;-81
2022/07/27 10:59:38;;;;;;;0.70;0.10;;;27.50;51.50;;;;;;4995976;28;20390;-81
2022/07/27 11:02:12;;;;;;;0.22;0.22;;;28.10;49.80;;;;;;5013283;28;20032;-80
2022/07/27 11:04:51;;;;;;;0.50;0.50;;;28.40;49.70;;;;;;5013395;28;20229;-81
2022/07/27 11:07:18;;;;;;;;;;;27.90;50.00;;;;;;5013764;28;20026;-81
2022/07/27 11:09:46;;;;;;;0.20;0.20;;;27.90;50.40;;;;;;5013200;28;19952;-81
2022/07/27 11:12:12;;;;;;;0.10;0.10;;;27.90;51.40;;;;;;5012888;28;20030;-78
2022/07/27 11:14:47;;;;;;;0.22;0.22;;;28.10;51.90;;;;;;5012819;28;20402;-78
2022/07/27 11:17:14;;;;;;;0.30;0.30;;;27.50;53.40;;;;;;5013446;28;20037;-78
2022/07/27 11:19:40;;;;;;;0.57;0.50;;;26.50;52.70;;;;;;5013476;28;20026;-79
2022/07/27 11:22:06;;;;;;;0.10;0.10;;;25.90;54.10;;;;;;5013398;28;20053;-79
2022/07/27 11:24:33;;;;;;;0.47;0.45;;;26.40;54.00;;;;;;5013379;28;20049;-79
2022/07/27 11:26:59;;;;;;;0.55;0.32;;;27.80;53.30;;;;;;4996127;28;20030;-79
2022/07/27 11:29:25;;;;;;;0.30;0.30;;;;;;;;;;4995434;28;20386;-79
2022/07/27 11:31:53;;;;;;;0.00;0.00;;;28.20;50.40;;;;;;5013127;28;20022;-79
2022/07/27 11:34:49;;;;;;;0.03;0.03;;;29.30;51.70;;;;;;4995559;28;20126;-79
2022/07/27 11:37:21;;;;;;;0.17;0.17;;;29.00;47.60;;;;;;4983580;28;20092;-80
2022/07/27 11:39:47;;;;;;;0.10;0.10;;;30.10;51.00;;;;;;5013160;28;20022;-79
2022/07/27 11:42:14;;;;;;;0.10;0.00;;;31.00;47.40;;;;;;5013333;28;20023;-79
2022/07/27 11:44:41;;;;;;;0.10;0.10;;;31.10;45.20;;;;;;5013065;28;20026;-79
2022/07/27 11:47:07;;;;;;;0.10;0.10;;;31.00;45.10;;;;;;5012932;28;20022;-79
2022/07/27 11:49:34;;;;;;;0.10;0.10;;;30.40;45.30;;;;;;4995230;28;20026;-79
2022/07/27 11:52:05;;;;;;;0.73;0.73;;;29.50;46.80;;;;;;5012935;28;20088;-79
2022/07/27 11:54:39;;;;;;;0.43;0.32;;;29.40;47.60;;;;;;5015781;28;20049;-80
2022/07/27 11:57:08;;;;;;;0.03;0.03;;;28.00;49.30;;;;;;5016967;28;20026;-79
2022/07/27 11:59:36;;;;;;;0.45;0.30;;;27.20;50.70;;;;;;5017016;28;20038;-80
2022/07/27 12:02:06;;;;;;;0.25;0.25;;;27.50;50.20;;;;;;5016800;28;20032;-80
2022/07/27 12:04:34;;;;;;;0.40;0.40;;;29.00;48.80;;;;;;5016854;28;20029;-79
2022/07/27 12:07:15;;;;;;;0.45;0.20;;;30.30;47.80;;;;;;5016532;28;20026;-79
2022/07/27 12:09:47;;;;;;;0.10;0.10;;;30.70;47.30;;;;;;4998927;28;20080;-79
2022/07/27 12:12:21;;;;;;;0.10;0.10;;;29.90;47.80;;;;;;5016675;28;20113;-79
2022/07/27 12:14:53;;;;;;;0.93;0.93;;;29.40;46.50;;;;;;4995556;28;20046;-79
2022/07/27 12:17:33;;;;;;;0.10;0.10;;;28.80;48.60;;;;;;4997003;28;20081;-79
2022/07/27 12:20:07;;;;;;;0.15;0.15;;;29.90;48.70;;;;;;4995597;28;20510;-79
2022/07/27 12:22:49;;;;;;;0.28;0.25;;;30.50;46.00;;;;;;4995586;28;20471;-80
2022/07/27 12:25:17;;;;;;;0.30;0.30;;;31.40;47.20;;;;;;4995463;28;20081;-80
2022/07/27 12:28:05;;;;;;;0.20;0.20;;;32.30;44.90;;;;;;4995420;28;20030;-79
2022/07/27 12:30:36;;;;;;;0.25;0.25;;;33.00;44.70;;;;;;4995258;28;20419;-79
2022/07/27 12:33:04;;;;;;;0.10;0.10;;;32.80;43.80;;;;;;4995477;28;20019;-79
2022/07/27 12:35:42;;;;;;;0.32;0.25;;;30.10;46.00;;;;;;4995261;28;20058;-79
2022/07/27 12:38:08;;;;;;;0.15;0.15;;;29.70;46.00;;;;;;4996631;28;20050;-79
2022/07/27 12:40:47;;;;;;;0.80;0.80;;;28.80;47.70;;;;;;4995354;28;20494;-79
2022/07/27 12:43:16;;;;;;;0.10;0.10;;;28.30;47.90;;;;;;4995294;28;20085;-79
2022/07/27 12:45:41;;;;;;;;;;;28.10;48.30;;;;;;4996707;28;20030;-79
2022/07/27 12:48:15;;;;;;;0.15;0.15;;;28.70;48.10;;;;;;4996496;28;19960;-80
2022/07/27 12:50:43;;;;;;;0.10;0.10;;;29.80;47.90;;;;;;4996295;28;20030;-79
2022/07/27 12:53:12;;;;;;;0.63;0.13;;;30.80;45.50;;;;;;4996452;28;20030;-79
2022/07/27 12:55:40;;;;;;;1.17;0.30;;;31.10;46.10;;;;;;4996362;28;20113;-79
2022/07/27 12:58:12;;;;;;;1.17;0.28;;;32.40;46.40;;;;;;4994918;28;20360;-79